createdAt,value
2018-11-28T00:00:02.639Z,2.20
2018-11-28T00:02:36.486Z,2.87
2018-11-28T00:05:11.203Z,2.30
2018-11-28T00:07:44.826Z,2.47
2018-11-28T00:10:18.782Z,3.43
2018-11-28T00:12:53.532Z,3.23
2018-11-28T00:15:27.672Z,2.27
2018-11-28T00:18:02.205Z,6.50
2018-11-28T00:20:36.964Z,4.10
2018-11-28T00:23:10.861Z,4.10
2018-11-28T00:25:44.925Z,2.53
2018-11-28T00:28:18.717Z,2.10
2018-11-28T00:30:53.329Z,2.67
2018-11-28T00:33:27.890Z,3.40
2018-11-28T00:36:02.431Z,2.50
2018-11-28T00:38:36.135Z,2.27
2018-11-28T00:41:10.798Z,3.43
2018-11-28T00:43:44.436Z,2.30
2018-11-28T00:46:18.304Z,3.00
2018-11-28T00:48:52.034Z,3.17
2018-11-28T00:51:26.051Z,1.60
2018-11-28T00:54:00.355Z,3.47
2018-11-28T00:56:35.059Z,3.53
2018-11-28T00:59:09.709Z,3.17
2018-11-28T01:01:43.653Z,2.20
2018-11-28T01:04:17.565Z,3.43
2018-11-28T01:06:52.604Z,2.23
2018-11-28T01:09:26.599Z,2.20
2018-11-28T01:12:01.962Z,2.30
2018-11-28T01:14:36.841Z,2.37
2018-11-28T01:17:10.874Z,3.30
2018-11-28T01:19:45.366Z,4.60
2018-11-28T01:22:19.185Z,3.33
2018-11-28T01:24:54.002Z,1.87
2018-11-28T01:27:28.774Z,1.83
2018-11-28T01:30:03.052Z,2.20
2018-11-28T01:32:36.930Z,2.77
2018-11-28T01:35:12.231Z,1.77
2018-11-28T01:37:46.033Z,2.83
2018-11-28T01:40:20.730Z,2.63
2018-11-28T01:42:54.631Z,3.60
2018-11-28T01:45:28.580Z,3.40
2018-11-28T01:48:03.402Z,2.33
2018-11-28T01:50:37.694Z,2.37
2018-11-28T01:53:12.743Z,2.00
2018-11-28T01:55:47.417Z,2.37
2018-11-28T01:58:21.412Z,3.80
2018-11-28T02:00:55.223Z,2.47
2018-11-28T02:03:29.122Z,1.93
2018-11-28T02:06:03.092Z,2.37
2018-11-28T02:08:37.403Z,2.77
2018-11-28T02:11:11.885Z,2.23
2018-11-28T02:13:45.948Z,2.23
2018-11-28T02:16:20.544Z,2.10
2018-11-28T02:18:54.176Z,1.90
2018-11-28T02:21:28.034Z,2.67
2018-11-28T02:24:01.982Z,3.37
2018-11-28T02:26:36.511Z,2.00
2018-11-28T02:29:10.331Z,3.23
2018-11-28T02:31:44.778Z,2.80
2018-11-28T02:34:19.508Z,2.87
2018-11-28T02:36:53.926Z,1.57
2018-11-28T02:39:28.688Z,2.70
2018-11-28T02:42:03.103Z,2.23
2018-11-28T02:44:37.489Z,2.33
2018-11-28T02:47:11.397Z,2.43
2018-11-28T02:49:45.430Z,2.27
2018-11-28T02:52:19.210Z,3.23
2018-11-28T02:54:52.972Z,2.77
2018-11-28T02:57:26.709Z,2.70
2018-11-28T03:00:01.275Z,2.63
2018-11-28T03:02:35.931Z,2.50
2018-11-28T03:05:10.591Z,3.50
2018-11-28T03:07:44.459Z,2.17
2018-11-28T03:10:18.816Z,2.03
2018-11-28T03:12:52.866Z,2.60
2018-11-28T03:15:32.671Z,2.87
2018-11-28T03:18:07.924Z,3.37
2018-11-28T03:20:41.873Z,2.43
2018-11-28T03:23:15.914Z,3.90
2018-11-28T03:25:49.841Z,2.40
2018-11-28T03:28:23.755Z,3.13
2018-11-28T03:30:57.601Z,3.73
2018-11-28T03:33:32.251Z,2.63
2018-11-28T03:36:06.310Z,2.10
2018-11-28T03:38:40.129Z,2.47
2018-11-28T03:41:14.944Z,2.43
2018-11-28T03:43:49.426Z,2.80
2018-11-28T03:46:23.233Z,3.83
2018-11-28T03:48:57.328Z,2.20
2018-11-28T03:51:31.330Z,4.13
2018-11-28T03:54:05.628Z,2.97
2018-11-28T03:56:40.956Z,3.43
2018-11-28T03:59:15.595Z,2.50
2018-11-28T04:01:49.459Z,3.43
2018-11-28T04:04:23.398Z,3.70
2018-11-28T04:06:57.207Z,5.97
2018-11-28T04:09:31.179Z,3.23
2018-11-28T04:12:05.280Z,4.23
2018-11-28T04:14:39.210Z,2.97
2018-11-28T04:17:13.514Z,3.93
2018-11-28T04:19:47.595Z,3.73
2018-11-28T04:22:21.991Z,4.97
2018-11-28T04:24:56.717Z,5.10
2018-11-28T04:27:31.319Z,4.83
2018-11-28T04:30:06.798Z,5.97
2018-11-28T04:32:41.000Z,4.00
2018-11-28T04:35:15.177Z,4.63
2018-11-28T04:37:49.048Z,3.10
2018-11-28T04:40:23.631Z,4.23
2018-11-28T04:42:58.229Z,3.77
2018-11-28T04:45:32.852Z,3.90
2018-11-28T04:48:06.776Z,4.73
2018-11-28T04:50:40.513Z,4.13
2018-11-28T04:53:14.810Z,3.57
2018-11-28T04:55:48.719Z,3.67
2018-11-28T04:58:22.515Z,4.20
2018-11-28T05:00:56.448Z,4.27
2018-11-28T05:03:30.083Z,5.23
2018-11-28T05:06:04.481Z,3.60
2018-11-28T05:08:38.482Z,6.43
2018-11-28T05:11:12.963Z,4.67
2018-11-28T05:13:46.808Z,4.07
2018-11-28T05:16:21.371Z,4.37
2018-11-28T05:18:55.261Z,4.73
2018-11-28T05:21:29.058Z,5.60
2018-11-28T05:24:03.923Z,4.57
2018-11-28T05:26:38.769Z,6.20
2018-11-28T05:29:13.923Z,6.77
2018-11-28T05:31:47.637Z,7.97
2018-11-28T05:34:21.801Z,8.63
2018-11-28T05:36:55.899Z,8.53
2018-11-28T05:39:29.840Z,8.07
2018-11-28T05:42:04.295Z,12.53
2018-11-28T05:44:38.930Z,11.23
2018-11-28T05:47:12.890Z,13.40
2018-11-28T05:49:46.786Z,13.73
2018-11-28T05:52:22.043Z,11.03
2018-11-28T05:54:55.837Z,9.80
2018-11-28T05:57:30.190Z,18.63
2018-11-28T06:00:04.948Z,17.13
2018-11-28T06:02:38.338Z,17.30
2018-11-28T06:05:12.298Z,11.17
2018-11-28T06:07:46.046Z,13.37
2018-11-28T06:10:19.881Z,14.67
2018-11-28T06:12:54.326Z,12.10
2018-11-28T06:15:28.451Z,12.53
2018-11-28T06:18:02.129Z,14.27
2018-11-28T06:20:35.772Z,10.60
2018-11-28T06:23:09.761Z,23.73
2018-11-28T06:25:43.631Z,23.50
2018-11-28T06:28:17.464Z,22.10
2018-11-28T06:30:51.188Z,20.30
2018-11-28T06:33:25.510Z,21.83
2018-11-28T06:35:59.782Z,50.70
2018-11-28T06:38:33.612Z,17.90
2018-11-28T06:41:08.156Z,25.20
2018-11-28T06:43:42.923Z,13.77
2018-11-28T06:46:17.511Z,13.30
2018-11-28T06:48:51.934Z,12.97
2018-11-28T06:51:25.819Z,14.27
2018-11-28T06:53:59.639Z,14.00
2018-11-28T06:56:33.335Z,16.40
2018-11-28T06:59:07.172Z,15.37
2018-11-28T07:01:41.490Z,13.13
2018-11-28T07:04:15.391Z,13.07
2018-11-28T07:06:49.227Z,13.37
2018-11-28T07:09:23.223Z,13.67
2018-11-28T07:11:58.030Z,12.00
2018-11-28T07:14:32.523Z,11.80
2018-11-28T07:17:06.579Z,11.40
2018-11-28T07:19:40.377Z,10.23
2018-11-28T07:22:14.428Z,10.33
2018-11-28T07:24:48.518Z,11.90
2018-11-28T07:27:23.299Z,9.97
2018-11-28T07:29:56.022Z,9.57
2018-11-28T07:32:30.436Z,11.17
2018-11-28T07:35:04.964Z,12.63
2018-11-28T07:37:38.875Z,10.30
2018-11-28T07:40:13.494Z,10.93
2018-11-28T07:42:51.325Z,9.17
2018-11-28T07:45:25.269Z,9.30
2018-11-28T07:47:59.134Z,9.57
2018-11-28T07:50:33.128Z,9.40
2018-11-28T07:53:06.758Z,8.93
2018-11-28T07:55:40.547Z,11.60
2018-11-28T07:58:15.071Z,8.77
2018-11-28T08:00:49.635Z,7.20
2018-11-28T08:03:23.579Z,8.63
2018-11-28T08:05:57.442Z,8.63
2018-11-28T08:08:35.764Z,6.73
2018-11-28T08:11:10.151Z,6.57
2018-11-28T08:13:44.794Z,5.57
2018-11-28T08:16:19.205Z,6.27
2018-11-28T08:18:53.964Z,6.83
2018-11-28T08:21:28.781Z,6.03
2018-11-28T08:24:02.676Z,5.57
2018-11-28T08:26:36.511Z,7.33
2018-11-28T08:29:10.546Z,6.40
2018-11-28T08:31:44.349Z,5.03
2018-11-28T08:34:18.546Z,5.67
2018-11-28T08:36:53.166Z,4.00
2018-11-28T08:39:27.761Z,4.83
2018-11-28T08:42:04.484Z,3.63
2018-11-28T08:44:38.836Z,2.77
2018-11-28T08:47:13.500Z,4.97
2018-11-28T08:49:48.130Z,3.67
2018-11-28T08:52:22.077Z,5.07
2018-11-28T08:54:56.450Z,3.87
2018-11-28T08:57:30.219Z,3.53
2018-11-28T09:00:05.314Z,2.10
2018-11-28T09:02:39.200Z,2.53
2018-11-28T09:05:13.385Z,3.10
2018-11-28T09:07:47.026Z,2.87
2018-11-28T09:10:21.312Z,1.80
2018-11-28T09:13:04.158Z,2.80
2018-11-28T09:15:34.889Z,5.97
2018-11-28T09:18:10.756Z,2.20
2018-11-28T09:20:45.065Z,2.60
2018-11-28T09:23:23.573Z,2.10
2018-11-28T09:25:57.573Z,3.00
2018-11-28T09:28:31.756Z,2.27
2018-11-28T09:31:05.745Z,2.30
2018-11-28T09:33:49.268Z,2.87
2018-11-28T09:36:23.852Z,2.83
2018-11-28T09:38:57.802Z,2.23
2018-11-28T09:41:32.437Z,3.47
2018-11-28T09:44:06.895Z,2.67
2018-11-28T09:46:41.551Z,2.70
2018-11-28T09:49:15.667Z,2.77
2018-11-28T09:51:49.571Z,3.30
2018-11-28T09:54:24.299Z,2.30
2018-11-28T09:56:58.445Z,3.20
2018-11-28T09:59:33.397Z,3.63
2018-11-28T10:02:07.836Z,2.90
2018-11-28T10:04:41.743Z,3.47
2018-11-28T10:07:15.691Z,1.87
2018-11-28T10:09:49.712Z,2.73
2018-11-28T10:12:23.928Z,2.07
2018-11-28T10:14:58.508Z,2.57
2018-11-28T10:17:32.467Z,2.93
2018-11-28T10:20:08.495Z,3.47
2018-11-28T10:22:42.492Z,1.93
2018-11-28T10:25:19.015Z,1.70
2018-11-28T10:27:54.459Z,2.90
2018-11-28T10:30:29.336Z,2.33
2018-11-28T10:33:03.586Z,2.57
2018-11-28T10:35:41.048Z,1.63
2018-11-28T10:38:14.766Z,7.07
2018-11-28T10:40:49.535Z,6.33
2018-11-28T10:43:23.419Z,2.90
2018-11-28T10:45:57.439Z,1.43
2018-11-28T10:48:31.935Z,1.70
2018-11-28T10:51:06.222Z,1.40
2018-11-28T10:53:40.083Z,7.27
2018-11-28T10:56:13.733Z,4.73
2018-11-28T10:58:47.828Z,2.80
2018-11-28T11:01:24.726Z,2.27
2018-11-28T11:04:03.867Z,2.80
2018-11-28T11:06:42.688Z,2.60
2018-11-28T11:09:22.027Z,1.50
2018-11-28T11:12:01.143Z,2.50
2018-11-28T11:14:40.348Z,1.70
2018-11-28T11:17:14.418Z,2.47
2018-11-28T11:22:30.124Z,2.67
2018-11-28T11:25:04.981Z,2.27
2018-11-28T11:27:39.163Z,6.13
2018-11-28T11:30:13.503Z,2.50
2018-11-28T11:32:48.971Z,2.27
2018-11-28T11:35:23.794Z,1.73
2018-11-28T11:37:58.187Z,1.87
2018-11-28T11:40:32.945Z,2.07
2018-11-28T11:43:06.947Z,2.53
2018-11-28T11:45:41.402Z,2.63
2018-11-28T11:48:15.208Z,2.73
2018-11-28T11:50:49.788Z,3.33
2018-11-28T11:53:24.267Z,3.30
2018-11-28T11:55:58.201Z,2.30
2018-11-28T11:58:32.604Z,1.93
2018-11-28T12:01:06.875Z,2.27
2018-11-28T12:03:40.847Z,1.83
2018-11-28T12:06:14.896Z,2.20
2018-11-28T12:08:50.141Z,3.63
2018-11-28T12:11:25.246Z,3.43
2018-11-28T12:14:00.004Z,2.03
2018-11-28T12:16:34.300Z,2.37
2018-11-28T12:19:08.825Z,3.10
2018-11-28T12:21:43.934Z,2.00
2018-11-28T12:24:18.244Z,2.83
2018-11-28T12:26:52.694Z,3.67
2018-11-28T12:29:26.560Z,2.43
2018-11-28T12:32:01.332Z,3.17
2018-11-28T12:34:35.267Z,3.03
2018-11-28T12:37:09.161Z,3.10
2018-11-28T12:39:42.970Z,3.17
2018-11-28T12:42:16.981Z,2.47
2018-11-28T12:44:54.157Z,1.57
2018-11-28T12:47:28.017Z,1.90
2018-11-28T12:50:01.861Z,2.17
2018-11-28T12:52:37.249Z,2.97
2018-11-28T12:55:11.482Z,2.73
2018-11-28T12:57:45.926Z,2.73
2018-11-28T13:00:20.708Z,1.60
2018-11-28T13:02:57.121Z,1.90
2018-11-28T13:05:31.101Z,1.90
2018-11-28T13:08:05.020Z,1.87
2018-11-28T13:10:39.483Z,4.77
2018-11-28T13:13:13.638Z,2.90
2018-11-28T13:15:47.368Z,2.40
2018-11-28T13:18:22.481Z,4.23
2018-11-28T13:20:56.167Z,3.87
2018-11-28T13:23:30.314Z,2.27
2018-11-28T13:26:04.110Z,1.47
2018-11-28T13:28:37.810Z,2.77
2018-11-28T13:31:11.833Z,2.00
2018-11-28T13:33:46.280Z,1.70
2018-11-28T13:36:22.684Z,3.40
2018-11-28T13:38:54.971Z,4.47
2018-11-28T13:41:28.792Z,1.77
2018-11-28T13:44:03.496Z,2.97
2018-11-28T13:46:38.130Z,2.60
2018-11-28T13:49:12.244Z,2.90
2018-11-28T13:51:46.043Z,1.87
2018-11-28T13:54:21.437Z,2.63
2018-11-28T13:56:58.676Z,2.67
2018-11-28T13:59:28.285Z,3.20
2018-11-28T14:02:02.355Z,3.23
2018-11-28T14:04:36.545Z,2.83
2018-11-28T14:07:11.514Z,3.17
2018-11-28T14:09:45.262Z,7.63
2018-11-28T14:12:18.879Z,4.93
2018-11-28T14:14:53.097Z,4.17
2018-11-28T14:17:26.701Z,5.43
2018-11-28T14:20:00.593Z,6.00
2018-11-28T14:22:35.379Z,5.90
2018-11-28T14:25:10.214Z,5.57
2018-11-28T14:27:44.039Z,4.07
2018-11-28T14:30:18.325Z,3.50
2018-11-28T14:32:52.497Z,3.70
2018-11-28T14:35:27.090Z,4.17
2018-11-28T14:38:01.043Z,4.83
2018-11-28T14:40:35.092Z,4.80
2018-11-28T14:43:09.341Z,2.70
2018-11-28T14:45:43.304Z,5.73
2018-11-28T14:48:17.741Z,2.87
2018-11-28T14:50:53.102Z,3.60
2018-11-28T14:53:27.641Z,4.43
2018-11-28T14:56:02.039Z,2.97
2018-11-28T14:58:36.071Z,3.60
2018-11-28T15:01:11.055Z,4.73
2018-11-28T15:03:45.644Z,3.93
2018-11-28T15:06:25.992Z,5.60
2018-11-28T15:09:05.243Z,3.63
2018-11-28T15:11:41.027Z,4.17
2018-11-28T15:14:14.090Z,5.03
2018-11-28T15:16:47.839Z,3.37
2018-11-28T15:19:21.581Z,6.77
2018-11-28T15:21:55.154Z,3.77
2018-11-28T15:24:28.863Z,4.53
2018-11-28T15:27:03.098Z,3.87
2018-11-28T15:29:37.631Z,4.43
2018-11-28T15:32:11.592Z,4.80
2018-11-28T15:34:45.514Z,5.33
2018-11-28T15:37:19.230Z,5.70
2018-11-28T15:39:55.987Z,7.03
2018-11-28T15:42:27.505Z,5.10
2018-11-28T15:45:02.092Z,7.10
2018-11-28T15:47:37.134Z,4.40
2018-11-28T15:50:11.177Z,4.77
2018-11-28T15:52:45.338Z,5.77
2018-11-28T15:55:19.319Z,4.83
2018-11-28T15:57:53.172Z,6.23
2018-11-28T16:00:28.268Z,3.77
2018-11-28T16:03:03.562Z,5.60
2018-11-28T16:05:37.481Z,4.50
2018-11-28T16:08:12.179Z,5.30
2018-11-28T16:10:46.131Z,4.90
2018-11-28T16:13:19.938Z,5.37
2018-11-28T16:15:54.382Z,5.47
2018-11-28T16:18:28.122Z,5.60
2018-11-28T16:21:02.019Z,5.60
2018-11-28T16:23:36.565Z,6.80
2018-11-28T16:26:10.505Z,6.17
2018-11-28T16:28:44.382Z,6.77
2018-11-28T16:31:18.968Z,5.23
2018-11-28T16:33:52.700Z,6.40
2018-11-28T16:36:27.721Z,5.63
2018-11-28T16:39:02.058Z,6.00
2018-11-28T16:41:35.876Z,8.17
2018-11-28T16:44:10.948Z,6.50
2018-11-28T16:46:45.711Z,6.23
2018-11-28T16:49:20.510Z,8.03
2018-11-28T16:51:54.696Z,9.73
2018-11-28T16:54:29.161Z,7.17
2018-11-28T16:57:03.367Z,7.47
2018-11-28T16:59:38.406Z,5.13
2018-11-28T17:02:13.142Z,6.27
2018-11-28T17:04:47.024Z,6.27
2018-11-28T17:07:21.019Z,7.20
2018-11-28T17:09:55.434Z,8.40
2018-11-28T17:12:29.331Z,6.13
2018-11-28T17:15:03.140Z,7.90
2018-11-28T17:17:37.652Z,6.83
2018-11-28T17:20:12.205Z,7.70
2018-11-28T17:22:46.274Z,8.47
2018-11-28T17:25:23.468Z,7.97
2018-11-28T17:27:57.955Z,7.57
2018-11-28T17:30:32.080Z,8.80
2018-11-28T17:33:06.233Z,5.60
2018-11-28T17:35:40.820Z,7.37
2018-11-28T17:38:15.831Z,5.63
2018-11-28T17:40:50.516Z,7.93
2018-11-28T17:43:24.459Z,6.47
2018-11-28T17:45:58.323Z,7.23
2018-11-28T17:48:33.105Z,7.10
2018-11-28T17:51:07.893Z,7.13
2018-11-28T17:53:43.494Z,8.37
2018-11-28T17:56:18.019Z,7.03
2018-11-28T17:58:53.055Z,7.17
2018-11-28T18:01:27.169Z,8.07
2018-11-28T18:04:01.018Z,5.43
2018-11-28T18:06:36.205Z,6.23
2018-11-28T18:09:11.624Z,6.93
2018-11-28T18:11:46.119Z,7.55
2018-11-28T18:14:20.908Z,4.73
2018-11-28T18:16:55.093Z,5.77
2018-11-28T18:19:29.120Z,5.93
2018-11-28T18:22:04.152Z,6.53
2018-11-28T18:24:38.585Z,7.47
2018-11-28T18:27:13.619Z,5.07
2018-11-28T18:29:47.718Z,5.03
2018-11-28T18:32:21.440Z,7.50
2018-11-28T18:34:55.466Z,7.67
2018-11-28T18:37:29.322Z,5.27
2018-11-28T18:40:03.397Z,5.00
2018-11-28T18:42:38.030Z,6.20
2018-11-28T18:45:13.397Z,7.13
2018-11-28T18:47:47.258Z,6.23
2018-11-28T18:50:21.163Z,6.57
2018-11-28T18:52:54.859Z,5.17
2018-11-28T18:55:28.694Z,6.07
2018-11-28T18:58:02.813Z,6.00
2018-11-28T19:00:37.325Z,4.90
2018-11-28T19:03:11.136Z,4.77
2018-11-28T19:05:45.642Z,5.70
2018-11-28T19:08:19.612Z,4.93
2018-11-28T19:10:54.404Z,6.27
2018-11-28T19:13:29.398Z,5.73
2018-11-28T19:16:03.637Z,4.40
2018-11-28T19:18:37.819Z,4.10
2018-11-28T19:21:11.739Z,4.07
2018-11-28T19:23:46.324Z,5.93
2018-11-28T19:26:20.545Z,6.50
2018-11-28T19:28:54.545Z,6.37
2018-11-28T19:31:28.535Z,5.87
2018-11-28T19:34:02.921Z,7.53
2018-11-28T19:36:37.638Z,5.53
2018-11-28T19:39:11.655Z,7.53
2018-11-28T19:41:45.657Z,5.57
2018-11-28T19:44:19.892Z,4.43
2018-11-28T19:46:53.660Z,6.67
2018-11-28T19:49:27.573Z,6.90
2018-11-28T19:52:01.386Z,6.10
2018-11-28T19:54:35.856Z,4.63
2018-11-28T19:57:10.225Z,6.07
2018-11-28T19:59:45.630Z,5.30
2018-11-28T20:02:20.312Z,7.10
2018-11-28T20:04:54.376Z,5.43
2018-11-28T20:07:28.491Z,6.57
2018-11-28T20:10:02.515Z,5.33
2018-11-28T20:12:36.460Z,5.27
2018-11-28T20:15:11.984Z,5.17
2018-11-28T20:17:46.563Z,6.87
2018-11-28T20:20:21.868Z,6.07
2018-11-28T20:22:55.792Z,6.30
2018-11-28T20:25:30.312Z,5.33
2018-11-28T20:28:04.167Z,3.77
2018-11-28T20:30:41.263Z,6.60
2018-11-28T20:33:16.177Z,5.43
2018-11-28T20:35:50.220Z,5.73
2018-11-28T20:38:25.260Z,4.20
2018-11-28T20:40:59.070Z,6.03
2018-11-28T20:43:32.797Z,7.30
2018-11-28T20:46:06.876Z,5.63
2018-11-28T20:48:41.009Z,6.53
2018-11-28T20:51:15.214Z,5.93
2018-11-28T20:53:49.241Z,5.73
2018-11-28T20:56:23.883Z,6.50
2018-11-28T20:58:57.944Z,4.63
2018-11-28T21:01:31.758Z,5.03
2018-11-28T21:04:06.004Z,5.57
2018-11-28T21:06:39.859Z,7.03
2018-11-28T21:09:13.541Z,4.93
2018-11-28T21:11:47.670Z,4.80
2018-11-28T21:14:21.483Z,4.27
2018-11-28T21:16:55.999Z,6.30
2018-11-28T21:19:30.441Z,5.93
2018-11-28T21:22:04.493Z,5.00
2018-11-28T21:24:38.713Z,4.60
2018-11-28T21:27:12.913Z,4.47
2018-11-28T21:29:47.775Z,3.87
2018-11-28T21:32:26.615Z,5.53
2018-11-28T21:35:00.728Z,5.67
2018-11-28T21:37:34.836Z,7.33
2018-11-28T21:40:09.163Z,6.83
2018-11-28T21:42:43.094Z,6.00
2018-11-28T21:45:17.405Z,6.17
2018-11-28T21:47:51.370Z,5.83
2018-11-28T21:50:25.523Z,7.27
2018-11-28T21:52:59.454Z,5.97
2018-11-28T21:55:33.422Z,4.93
2018-11-28T21:58:09.211Z,4.03
2018-11-28T22:00:43.043Z,5.07
2018-11-28T22:03:17.917Z,3.47
2018-11-28T22:05:53.266Z,3.60
2018-11-28T22:08:27.477Z,3.40
2018-11-28T22:11:01.504Z,3.43
2018-11-28T22:13:35.433Z,3.03
2018-11-28T22:16:11.387Z,3.60
2018-11-28T22:18:45.575Z,5.20
2018-11-28T22:21:19.384Z,3.10
2018-11-28T22:23:53.542Z,3.57
2018-11-28T22:26:27.725Z,3.97
2018-11-28T22:29:02.498Z,3.70
2018-11-28T22:31:41.657Z,3.43
2018-11-28T22:34:16.525Z,3.17
2018-11-28T22:36:51.108Z,3.00
2018-11-28T22:39:25.369Z,2.90
2018-11-28T22:42:01.706Z,3.10
2018-11-28T22:44:38.410Z,2.63
2018-11-28T22:47:16.538Z,2.77
2018-11-28T22:49:50.504Z,3.50
2018-11-28T22:52:24.652Z,2.63
2018-11-28T22:55:02.416Z,2.50
2018-11-28T22:57:37.553Z,2.50
2018-11-28T23:00:31.530Z,3.43
2018-11-28T23:03:06.819Z,2.23
2018-11-28T23:05:41.411Z,2.00
2018-11-28T23:08:16.422Z,2.33
2018-11-28T23:10:50.812Z,2.37
2018-11-28T23:13:25.006Z,2.57
2018-11-28T23:15:58.913Z,2.03
2018-11-28T23:18:32.676Z,2.20
2018-11-28T23:21:07.702Z,2.00
2018-11-28T23:23:41.703Z,2.53
2018-11-28T23:26:15.756Z,1.90
2018-11-28T23:28:50.206Z,2.60
2018-11-28T23:31:24.530Z,2.43
2018-11-28T23:34:00.116Z,1.73
2018-11-28T23:36:36.275Z,1.13
2018-11-28T23:39:12.319Z,1.53
2018-11-28T23:41:47.881Z,1.00
2018-11-28T23:44:22.615Z,0.73
2018-11-28T23:46:57.132Z,1.43
2018-11-28T23:49:31.757Z,0.50
2018-11-28T23:52:09.529Z,1.47
2018-11-28T23:54:44.386Z,0.47
